createdAt,value
2023-01-09T00:00:59.210Z,2.90
2023-01-09T00:03:25.946Z,0.95
2023-01-09T00:06:11.538Z,2.95
2023-01-09T00:08:38.371Z,0.80
2023-01-09T00:11:05.850Z,4.45
2023-01-09T00:13:32.632Z,1.13
2023-01-09T00:15:59.868Z,1.80
2023-01-09T00:18:27.218Z,3.13
2023-01-09T00:20:54.109Z,0.30
2023-01-09T00:23:20.853Z,0.50
2023-01-09T00:25:47.522Z,3.15
2023-01-09T00:28:14.372Z,2.42
2023-01-09T00:30:41.084Z,0.68
2023-01-09T00:33:07.861Z,1.30
2023-01-09T00:35:34.662Z,1.60
2023-01-09T00:38:03.593Z,0.20
2023-01-09T00:40:30.348Z,0.95
2023-01-09T00:42:57.916Z,1.20
2023-01-09T00:45:29.150Z,3.47
2023-01-09T00:48:07.165Z,0.65
2023-01-09T00:50:35.545Z,1.80
2023-01-09T00:53:12.566Z,3.53
2023-01-09T00:55:40.028Z,1.13
2023-01-09T00:58:07.167Z,1.35
2023-01-09T01:00:33.993Z,4.03
2023-01-09T01:03:01.111Z,1.58
2023-01-09T01:05:46.511Z,1.27
2023-01-09T01:08:17.555Z,0.08
2023-01-09T01:10:45.641Z,1.13
2023-01-09T01:13:12.942Z,3.78
2023-01-09T01:15:40.924Z,1.77
2023-01-09T01:18:08.150Z,1.42
2023-01-09T01:20:34.937Z,2.05
2023-01-09T01:23:01.705Z,2.50
2023-01-09T01:25:28.480Z,0.82
2023-01-09T01:27:55.320Z,1.83
2023-01-09T01:30:21.973Z,4.53
2023-01-09T01:32:48.828Z,3.85
2023-01-09T01:35:15.571Z,1.67
2023-01-09T01:37:42.592Z,2.13
2023-01-09T01:40:11.068Z,2.63
2023-01-09T01:42:37.769Z,0.75
2023-01-09T01:45:09.521Z,2.38
2023-01-09T01:47:39.326Z,0.70
2023-01-09T01:50:15.558Z,3.28
2023-01-09T01:52:47.786Z,2.30
2023-01-09T01:55:17.215Z,1.75
2023-01-09T01:57:47.924Z,1.98
2023-01-09T02:00:15.477Z,3.72
2023-01-09T02:02:43.711Z,2.80
2023-01-09T02:05:11.599Z,0.57
2023-01-09T02:07:38.378Z,0.45
2023-01-09T02:10:05.950Z,1.70
2023-01-09T02:12:33.709Z,0.15
2023-01-09T02:15:06.129Z,2.20
2023-01-09T02:18:03.135Z,1.90
2023-01-09T02:20:51.266Z,1.73
2023-01-09T02:23:55.451Z,0.20
2023-01-09T02:26:34.889Z,1.65
2023-01-09T02:29:23.013Z,1.33
2023-01-09T02:31:53.485Z,0.57
2023-01-09T02:34:57.540Z,0.40
2023-01-09T02:37:59.814Z,2.03
2023-01-09T02:40:39.406Z,1.10
2023-01-09T02:43:08.276Z,0.35
2023-01-09T02:45:35.126Z,3.08
2023-01-09T02:48:01.875Z,1.98
2023-01-09T02:51:02.713Z,0.45
2023-01-09T02:54:01.058Z,0.65
2023-01-09T02:56:55.908Z,3.95
2023-01-09T03:00:00.910Z,2.90
2023-01-09T03:02:44.384Z,2.97
2023-01-09T03:05:29.843Z,2.25
2023-01-09T03:08:00.101Z,1.98
2023-01-09T03:10:41.923Z,1.52
2023-01-09T03:13:14.303Z,1.05
2023-01-09T03:15:44.424Z,3.30
2023-01-09T03:18:13.920Z,2.60
2023-01-09T03:20:41.241Z,0.57
2023-01-09T03:23:08.858Z,0.93
2023-01-09T03:25:35.730Z,2.72
2023-01-09T03:28:05.941Z,0.82
2023-01-09T03:30:34.757Z,2.05
2023-01-09T03:33:01.787Z,1.83
2023-01-09T03:35:28.952Z,0.98
2023-01-09T03:37:55.583Z,0.65
2023-01-09T03:40:22.581Z,2.72
2023-01-09T03:42:49.439Z,0.85
2023-01-09T03:45:16.424Z,2.63
2023-01-09T03:47:43.235Z,0.93
2023-01-09T03:50:10.838Z,0.65
2023-01-09T03:52:37.592Z,1.33
2023-01-09T03:55:04.750Z,1.75
2023-01-09T03:57:31.524Z,1.98
2023-01-09T03:59:58.302Z,0.50
2023-01-09T04:02:25.176Z,1.05
2023-01-09T04:04:51.888Z,3.15
2023-01-09T04:07:18.660Z,0.95
2023-01-09T04:09:45.352Z,2.28
2023-01-09T04:12:12.014Z,1.77
2023-01-09T04:14:38.721Z,1.42
2023-01-09T04:17:05.551Z,2.22
2023-01-09T04:19:32.192Z,0.28
2023-01-09T04:21:59.005Z,3.08
2023-01-09T04:24:25.727Z,1.00
2023-01-09T04:26:52.386Z,0.20
2023-01-09T04:29:19.158Z,0.68
2023-01-09T04:31:45.959Z,0.88
2023-01-09T04:34:12.828Z,1.17
2023-01-09T04:36:40.178Z,2.08
2023-01-09T04:39:07.075Z,1.00
2023-01-09T04:41:48.925Z,3.22
2023-01-09T04:44:20.976Z,0.38
2023-01-09T04:46:47.878Z,0.57
2023-01-09T04:49:15.256Z,0.38
2023-01-09T04:51:43.123Z,0.65
2023-01-09T04:54:09.996Z,1.20
2023-01-09T04:56:37.394Z,1.15
2023-01-09T04:59:05.892Z,0.30
2023-01-09T05:01:33.950Z,0.52
2023-01-09T05:04:01.173Z,1.20
2023-01-09T05:06:28.285Z,2.20
2023-01-09T05:08:56.624Z,0.95
2023-01-09T05:11:25.493Z,0.57
2023-01-09T05:13:53.296Z,3.33
2023-01-09T05:16:20.681Z,2.03
2023-01-09T05:18:47.719Z,1.27
2023-01-09T05:21:14.757Z,0.75
2023-01-09T05:23:41.499Z,0.43
2023-01-09T05:26:08.249Z,1.35
2023-01-09T05:28:34.878Z,0.93
2023-01-09T05:31:01.591Z,1.35
2023-01-09T05:33:28.425Z,0.45
2023-01-09T05:35:55.166Z,0.68
2023-01-09T05:38:22.164Z,1.70
2023-01-09T05:40:49.011Z,1.67
2023-01-09T05:43:15.698Z,2.03
2023-01-09T05:45:43.279Z,0.65
2023-01-09T05:48:11.121Z,3.90
2023-01-09T05:50:37.904Z,3.08
2023-01-09T05:53:06.653Z,1.25
2023-01-09T05:55:34.079Z,1.00
2023-01-09T05:58:01.197Z,2.78
2023-01-09T06:00:28.046Z,0.40
2023-01-09T06:02:54.963Z,1.08
2023-01-09T06:05:21.850Z,3.30
2023-01-09T06:07:48.686Z,2.10
2023-01-09T06:10:15.848Z,0.80
2023-01-09T06:12:49.281Z,2.45
2023-01-09T06:15:16.721Z,0.68
2023-01-09T06:17:43.765Z,0.65
2023-01-09T06:20:11.927Z,2.22
2023-01-09T06:22:38.834Z,1.67
2023-01-09T06:25:06.297Z,0.95
2023-01-09T06:27:33.050Z,0.52
2023-01-09T06:29:59.870Z,0.88
2023-01-09T06:32:26.683Z,1.70
2023-01-09T06:34:53.481Z,0.95
2023-01-09T06:37:20.236Z,0.30
2023-01-09T06:39:47.288Z,0.55
2023-01-09T06:42:13.984Z,1.75
2023-01-09T06:44:40.762Z,1.20
2023-01-09T06:47:07.785Z,1.10
2023-01-09T06:49:34.642Z,1.33
2023-01-09T06:52:05.684Z,2.75
2023-01-09T06:54:32.460Z,1.50
2023-01-09T06:56:59.283Z,1.30
2023-01-09T06:59:26.302Z,1.95
2023-01-09T07:01:53.481Z,2.13
2023-01-09T07:04:22.129Z,3.65
2023-01-09T07:06:49.945Z,2.65
2023-01-09T07:09:16.647Z,1.10
2023-01-09T07:11:43.527Z,1.23
2023-01-09T07:14:10.319Z,2.42
2023-01-09T07:16:37.432Z,2.38
2023-01-09T07:19:04.213Z,0.90
2023-01-09T07:21:32.886Z,2.03
2023-01-09T07:23:59.882Z,2.90
2023-01-09T07:26:26.662Z,3.30
2023-01-09T07:28:54.631Z,2.65
2023-01-09T07:31:21.481Z,2.03
2023-01-09T07:33:48.302Z,3.28
2023-01-09T07:36:15.071Z,1.60
2023-01-09T07:38:43.007Z,1.58
2023-01-09T07:41:09.914Z,3.47
2023-01-09T07:43:38.143Z,4.35
2023-01-09T07:46:05.543Z,6.97
2023-01-09T07:48:32.671Z,2.33
2023-01-09T07:50:59.820Z,8.05
2023-01-09T07:53:26.655Z,5.85
2023-01-09T07:55:53.580Z,9.20
2023-01-09T07:58:20.296Z,5.90
2023-01-09T08:00:47.105Z,7.45
2023-01-09T08:03:13.844Z,11.52
2023-01-09T08:05:40.680Z,11.43
2023-01-09T08:08:07.583Z,13.15
2023-01-09T08:10:34.554Z,13.40
2023-01-09T08:13:01.239Z,7.72
2023-01-09T08:15:28.028Z,13.23
2023-01-09T08:17:54.891Z,7.63
2023-01-09T08:20:21.705Z,5.63
2023-01-09T08:22:53.559Z,7.68
2023-01-09T08:25:21.055Z,6.53
2023-01-09T08:27:48.308Z,5.25
2023-01-09T08:30:15.772Z,6.97
2023-01-09T08:32:43.047Z,3.30
2023-01-09T08:35:10.877Z,2.95
2023-01-09T08:37:38.606Z,5.67
2023-01-09T08:40:05.685Z,1.97
2023-01-09T08:42:51.037Z,3.40
2023-01-09T08:45:36.398Z,5.30
2023-01-09T08:48:03.471Z,2.40
2023-01-09T08:50:30.140Z,2.30
2023-01-09T08:52:58.104Z,3.43
2023-01-09T08:55:25.080Z,4.55
2023-01-09T08:57:52.976Z,2.35
2023-01-09T09:00:21.847Z,3.53
2023-01-09T09:02:57.250Z,1.93
2023-01-09T09:05:25.778Z,2.20
2023-01-09T09:07:56.337Z,3.60
2023-01-09T09:10:26.083Z,0.97
2023-01-09T09:12:55.695Z,3.43
2023-01-09T09:15:26.604Z,2.20
2023-01-09T09:18:02.118Z,2.87
2023-01-09T09:20:34.300Z,0.67
2023-01-09T09:23:01.143Z,1.60
2023-01-09T09:25:28.136Z,1.77
2023-01-09T09:27:57.607Z,1.20
2023-01-09T09:30:24.817Z,0.67
2023-01-09T09:32:51.512Z,2.63
2023-01-09T09:35:19.185Z,1.53
2023-01-09T09:37:55.194Z,3.70
2023-01-09T09:40:35.217Z,2.13
2023-01-09T09:43:43.405Z,1.67
2023-01-09T09:47:06.702Z,2.03
2023-01-09T09:50:27.940Z,2.77
2023-01-09T09:53:01.297Z,3.87
2023-01-09T09:55:33.076Z,2.30
2023-01-09T09:58:06.574Z,0.97
2023-01-09T10:00:33.653Z,2.57
2023-01-09T10:03:06.130Z,3.60
2023-01-09T10:05:40.730Z,0.93
2023-01-09T10:08:29.625Z,1.70
2023-01-09T10:10:57.085Z,3.23
2023-01-09T10:13:43.642Z,0.63
2023-01-09T10:16:16.515Z,1.37
2023-01-09T10:18:55.198Z,1.23
2023-01-09T10:21:45.556Z,1.70
2023-01-09T10:24:33.850Z,0.80
2023-01-09T10:27:09.947Z,0.50
2023-01-09T10:29:50.876Z,0.17
2023-01-09T10:32:33.398Z,0.17
2023-01-09T10:35:00.229Z,0.00
2023-01-09T10:37:37.139Z,1.20
2023-01-09T10:40:19.434Z,0.20
2023-01-09T10:42:47.497Z,0.83
2023-01-09T10:45:24.184Z,0.73
2023-01-09T10:47:53.812Z,1.60
2023-01-09T10:50:28.047Z,0.57
2023-01-09T10:52:56.491Z,0.30
2023-01-09T10:55:40.890Z,1.23
2023-01-09T10:58:13.572Z,1.33
2023-01-09T11:00:41.372Z,1.60
2023-01-09T11:03:13.922Z,0.20
2023-01-09T11:05:41.578Z,0.30
2023-01-09T11:08:15.825Z,1.33
2023-01-09T11:10:51.641Z,0.90
2023-01-09T11:13:29.450Z,1.07
2023-01-09T11:16:06.862Z,1.57
2023-01-09T11:18:47.918Z,0.97
2023-01-09T11:21:32.886Z,0.40
2023-01-09T11:24:21.510Z,1.23
2023-01-09T11:26:50.738Z,0.50
2023-01-09T11:29:24.563Z,0.73
2023-01-09T11:31:54.546Z,0.60
2023-01-09T11:34:24.850Z,1.00
2023-01-09T11:36:53.980Z,0.50
2023-01-09T11:39:25.293Z,0.93
2023-01-09T11:42:00.118Z,1.13
2023-01-09T11:44:28.987Z,0.30
2023-01-09T11:46:55.801Z,0.43
2023-01-09T11:49:25.953Z,0.10
2023-01-09T11:52:19.617Z,1.13
2023-01-09T11:55:03.000Z,0.10
2023-01-09T11:57:30.613Z,0.10
2023-01-09T12:00:01.851Z,0.30
2023-01-09T12:02:56.186Z,0.20
2023-01-09T12:05:25.735Z,0.20
2023-01-09T12:07:55.376Z,0.37
2023-01-09T12:10:47.128Z,0.93
2023-01-09T12:13:42.634Z,0.60
2023-01-09T12:16:22.558Z,0.40
2023-01-09T12:19:26.876Z,1.13
2023-01-09T12:22:01.309Z,0.40
2023-01-09T12:24:33.967Z,0.97
2023-01-09T12:27:16.604Z,0.47
2023-01-09T12:29:50.095Z,1.37
2023-01-09T12:32:48.080Z,0.83
2023-01-09T12:35:36.538Z,0.30
2023-01-09T12:38:15.228Z,0.50
2023-01-09T12:40:58.879Z,0.33
2023-01-09T12:43:44.707Z,1.13
2023-01-09T12:46:23.302Z,0.97
2023-01-09T12:49:14.890Z,0.03
2023-01-09T12:51:48.348Z,0.20
2023-01-09T12:54:42.995Z,0.40
2023-01-09T12:57:20.988Z,1.70
2023-01-09T13:00:25.942Z,1.23
2023-01-09T13:03:31.612Z,0.87
2023-01-09T13:05:58.736Z,1.73
2023-01-09T13:08:55.085Z,0.60
2023-01-09T13:11:31.911Z,1.20
2023-01-09T13:14:04.597Z,0.30
2023-01-09T13:16:36.274Z,1.13
2023-01-09T13:19:22.813Z,0.50
2023-01-09T13:21:50.314Z,0.60
2023-01-09T13:24:23.832Z,0.40
2023-01-09T13:26:56.523Z,0.30
2023-01-09T13:29:30.580Z,0.50
2023-01-09T13:32:12.521Z,0.43
2023-01-09T13:34:40.933Z,0.67
2023-01-09T13:37:25.060Z,0.73
2023-01-09T13:40:01.006Z,0.60
2023-01-09T13:42:46.480Z,0.87
2023-01-09T13:45:28.807Z,1.37
2023-01-09T13:48:19.142Z,0.53
2023-01-09T13:50:47.574Z,0.30
2023-01-09T13:53:20.306Z,0.70
2023-01-09T13:56:14.547Z,0.20
2023-01-09T13:58:59.105Z,0.20
2023-01-09T14:01:35.623Z,1.17
2023-01-09T14:04:21.398Z,0.47
2023-01-09T14:07:22.223Z,1.27
2023-01-09T14:09:54.410Z,0.60
2023-01-09T14:12:22.486Z,0.33
2023-01-09T14:14:51.523Z,0.13
2023-01-09T14:17:32.330Z,0.60
2023-01-09T14:20:03.228Z,0.37
2023-01-09T14:22:45.630Z,0.87
2023-01-09T14:25:26.534Z,1.03
2023-01-09T14:27:59.649Z,1.80
2023-01-09T14:30:26.433Z,0.87
2023-01-09T14:33:28.046Z,1.40
2023-01-09T14:36:12.317Z,0.10
2023-01-09T14:39:00.118Z,1.80
2023-01-09T14:41:48.501Z,0.10
2023-01-09T14:44:26.235Z,0.37
2023-01-09T14:46:54.392Z,1.80
2023-01-09T14:49:44.570Z,0.63
2023-01-09T14:52:51.820Z,0.00
2023-01-09T14:55:40.050Z,1.03
2023-01-09T14:58:21.302Z,0.00
2023-01-09T15:00:54.431Z,0.20
2023-01-09T15:03:23.285Z,0.10
2023-01-09T15:05:52.720Z,0.37
2023-01-09T15:08:23.758Z,0.37
2023-01-09T15:10:53.559Z,0.70
2023-01-09T15:13:36.650Z,0.60
2023-01-09T15:16:06.576Z,0.10
2023-01-09T15:18:42.079Z,0.47
2023-01-09T15:21:19.282Z,0.20
2023-01-09T15:23:46.158Z,1.13
2023-01-09T15:26:30.411Z,0.05
2023-01-09T15:29:15.496Z,0.27
2023-01-09T15:31:45.837Z,1.33
2023-01-09T15:34:19.152Z,0.15
2023-01-09T15:36:49.151Z,0.98
2023-01-09T15:39:22.586Z,0.05
2023-01-09T15:42:08.084Z,0.52
2023-01-09T15:44:39.049Z,0.20
2023-01-09T15:47:11.418Z,1.65
2023-01-09T15:49:38.370Z,1.35
2023-01-09T15:52:07.137Z,0.68
2023-01-09T15:54:35.280Z,0.80
2023-01-09T15:57:26.598Z,0.55
2023-01-09T16:00:17.217Z,0.45
2023-01-09T16:03:04.150Z,0.08
2023-01-09T16:05:33.049Z,1.00
2023-01-09T16:08:01.017Z,0.93
2023-01-09T16:10:34.533Z,1.58
2023-01-09T16:13:02.495Z,0.13
2023-01-09T16:15:34.712Z,0.32
2023-01-09T16:18:22.411Z,0.73
2023-01-09T16:20:49.602Z,1.00
2023-01-09T16:23:33.186Z,2.90
2023-01-09T16:26:12.603Z,0.50
2023-01-09T16:28:42.998Z,1.05
2023-01-09T16:31:29.386Z,0.50
2023-01-09T16:34:07.000Z,2.40
2023-01-09T16:36:37.423Z,1.17
2023-01-09T16:39:04.289Z,0.38
2023-01-09T16:41:50.046Z,1.13
2023-01-09T16:44:19.203Z,1.98
2023-01-09T16:46:46.290Z,2.80
2023-01-09T16:49:15.918Z,0.70
2023-01-09T16:51:42.706Z,0.88
2023-01-09T16:54:09.587Z,1.75
2023-01-09T16:56:38.602Z,0.77
2023-01-09T16:59:05.539Z,0.50
2023-01-09T17:01:32.416Z,0.20
2023-01-09T17:03:59.193Z,0.43
2023-01-09T17:06:31.209Z,0.50
2023-01-09T17:08:59.067Z,0.10
2023-01-09T17:11:32.024Z,0.68
2023-01-09T17:13:59.578Z,1.40
2023-01-09T17:16:26.997Z,4.50
2023-01-09T17:18:53.876Z,2.45
2023-01-09T17:21:26.958Z,0.77
2023-01-09T17:24:14.206Z,0.35
2023-01-09T17:27:03.822Z,0.50
2023-01-09T17:29:30.810Z,0.05
2023-01-09T17:31:58.151Z,2.38
2023-01-09T17:34:25.072Z,0.00
2023-01-09T17:36:52.873Z,0.98
2023-01-09T17:39:19.771Z,1.73
2023-01-09T17:41:47.689Z,1.48
2023-01-09T17:44:14.648Z,1.80
2023-01-09T17:46:43.832Z,0.45
2023-01-09T17:49:19.095Z,1.10
2023-01-09T17:51:46.021Z,0.90
2023-01-09T17:54:13.107Z,0.40
2023-01-09T17:56:44.744Z,2.67
2023-01-09T17:59:13.355Z,0.10
2023-01-09T18:01:41.633Z,0.45
2023-01-09T18:04:08.889Z,0.25
2023-01-09T18:06:38.576Z,1.48
2023-01-09T18:09:06.434Z,2.30
2023-01-09T18:11:33.405Z,0.47
2023-01-09T18:14:00.189Z,1.15
2023-01-09T18:16:28.135Z,0.47
2023-01-09T18:18:57.916Z,0.40
2023-01-09T18:21:26.836Z,0.05
2023-01-09T18:23:53.589Z,0.00
2023-01-09T18:26:21.539Z,0.63
2023-01-09T18:28:51.138Z,2.05
2023-01-09T18:31:22.679Z,0.60
2023-01-09T18:33:54.639Z,2.10
2023-01-09T18:36:24.387Z,0.68
2023-01-09T18:38:53.479Z,0.50
2023-01-09T18:41:21.710Z,0.90
2023-01-09T18:43:53.263Z,0.20
2023-01-09T18:46:24.196Z,0.08
2023-01-09T18:48:59.408Z,1.55
2023-01-09T18:51:28.269Z,0.63
2023-01-09T18:53:55.778Z,0.50
2023-01-09T18:56:23.342Z,0.45
2023-01-09T18:58:53.716Z,1.52
2023-01-09T19:01:20.649Z,2.65
2023-01-09T19:03:48.098Z,1.60
2023-01-09T19:06:14.960Z,1.10
2023-01-09T19:08:42.041Z,0.90
2023-01-09T19:11:08.937Z,0.30
2023-01-09T19:13:37.248Z,0.95
2023-01-09T19:16:06.584Z,0.47
2023-01-09T19:18:35.369Z,1.77
2023-01-09T19:21:02.355Z,1.17
2023-01-09T19:23:29.472Z,0.70
2023-01-09T19:25:57.719Z,0.45
2023-01-09T19:28:24.746Z,0.22
2023-01-09T19:30:56.898Z,0.73
2023-01-09T19:33:25.231Z,1.00
2023-01-09T19:35:53.095Z,0.25
2023-01-09T19:38:22.590Z,0.45
2023-01-09T19:40:49.483Z,0.70
2023-01-09T19:43:26.174Z,0.38
2023-01-09T19:45:56.477Z,0.57
2023-01-09T19:48:24.248Z,0.70
2023-01-09T19:50:50.959Z,1.65
2023-01-09T19:53:18.439Z,0.98
2023-01-09T19:55:45.204Z,0.60
2023-01-09T19:58:11.989Z,0.50
2023-01-09T20:00:39.342Z,0.65
2023-01-09T20:03:06.183Z,0.98
2023-01-09T20:05:33.288Z,0.03
2023-01-09T20:08:00.126Z,0.28
2023-01-09T20:10:26.825Z,0.50
2023-01-09T20:12:53.684Z,0.22
2023-01-09T20:15:20.492Z,1.00
2023-01-09T20:17:47.348Z,0.80
2023-01-09T20:20:15.939Z,1.38
2023-01-09T20:22:42.623Z,0.77
2023-01-09T20:25:10.449Z,0.35
2023-01-09T20:27:37.319Z,0.28
2023-01-09T20:30:04.707Z,0.85
2023-01-09T20:32:32.443Z,0.20
2023-01-09T20:34:59.387Z,0.00
2023-01-09T20:37:26.237Z,0.03
2023-01-09T20:39:53.338Z,1.42
2023-01-09T20:42:20.287Z,0.65
2023-01-09T20:44:47.309Z,1.35
2023-01-09T20:47:14.182Z,0.75
2023-01-09T20:49:40.847Z,1.65
2023-01-09T20:52:07.689Z,0.45
2023-01-09T20:54:35.668Z,1.27
2023-01-09T20:57:02.403Z,1.38
2023-01-09T20:59:29.355Z,0.65
2023-01-09T21:01:56.020Z,0.40
2023-01-09T21:04:22.993Z,0.75
2023-01-09T21:06:50.614Z,0.35
2023-01-09T21:09:17.738Z,2.00
2023-01-09T21:11:44.520Z,1.15
2023-01-09T21:14:11.291Z,0.35
2023-01-09T21:16:38.201Z,1.75
2023-01-09T21:19:04.996Z,0.73
2023-01-09T21:21:31.854Z,0.43
2023-01-09T21:24:00.588Z,0.98
2023-01-09T21:26:30.441Z,0.70
2023-01-09T21:28:59.793Z,0.28
2023-01-09T21:31:34.184Z,0.60
2023-01-09T21:34:07.515Z,0.77
2023-01-09T21:36:35.435Z,0.82
2023-01-09T21:39:07.582Z,1.08
2023-01-09T21:41:53.788Z,0.00
2023-01-09T21:44:39.086Z,1.00
2023-01-09T21:47:05.916Z,1.25
2023-01-09T21:49:35.045Z,0.22
2023-01-09T21:52:06.081Z,0.15
2023-01-09T21:54:33.794Z,1.65
2023-01-09T21:57:01.568Z,0.75
2023-01-09T21:59:29.141Z,1.27
2023-01-09T22:01:56.242Z,0.20
2023-01-09T22:04:25.458Z,0.40
2023-01-09T22:06:52.269Z,0.13
2023-01-09T22:09:19.094Z,0.93
2023-01-09T22:11:45.881Z,1.33
2023-01-09T22:14:14.783Z,0.88
2023-01-09T22:16:43.592Z,0.75
2023-01-09T22:19:12.374Z,0.47
2023-01-09T22:21:39.350Z,1.73
2023-01-09T22:24:06.579Z,0.22
2023-01-09T22:26:34.104Z,0.80
2023-01-09T22:29:01.043Z,0.25
2023-01-09T22:31:32.877Z,0.90
2023-01-09T22:34:02.316Z,0.35
2023-01-09T22:36:31.045Z,0.52
2023-01-09T22:39:00.194Z,0.38
2023-01-09T22:41:27.866Z,2.33
2023-01-09T22:43:54.632Z,1.00
2023-01-09T22:46:21.621Z,0.38
2023-01-09T22:48:48.437Z,0.32
2023-01-09T22:51:18.548Z,0.93
2023-01-09T22:53:46.063Z,0.10
2023-01-09T22:56:15.296Z,0.10
2023-01-09T22:58:42.257Z,0.50
2023-01-09T23:01:13.144Z,1.60
2023-01-09T23:03:40.322Z,0.50
2023-01-09T23:06:15.293Z,0.65
2023-01-09T23:08:43.176Z,0.00
2023-01-09T23:11:40.104Z,1.50
2023-01-09T23:14:07.051Z,0.65
2023-01-09T23:16:33.824Z,1.42
2023-01-09T23:19:00.921Z,1.27
2023-01-09T23:21:27.747Z,1.70
2023-01-09T23:23:54.470Z,0.75
2023-01-09T23:26:21.270Z,0.45
2023-01-09T23:28:47.957Z,1.75
2023-01-09T23:31:15.643Z,0.00
2023-01-09T23:33:42.509Z,0.45
2023-01-09T23:36:09.647Z,0.15
2023-01-09T23:38:36.372Z,0.90
2023-01-09T23:41:03.106Z,0.30
2023-01-09T23:43:29.979Z,0.20
2023-01-09T23:45:56.743Z,0.32
2023-01-09T23:48:23.604Z,1.27
2023-01-09T23:50:52.305Z,0.73
2023-01-09T23:53:21.446Z,3.13
2023-01-09T23:55:48.882Z,0.75
2023-01-09T23:58:16.770Z,0.00
